• Join FlightAware (Why Join?)
  • Login
  • US Flag 
06:06PM EDT


 

Airport Tracker/Info


-or-


 

Live Flight TrackerFlight Track Log ✈ DAL268 ✈ 08-Aug-2013 ✈ KJFK - LLBG / TLV

Flight Track Log - Related Links

Times and Time Zones

All times are in EDT time to prevent confusion due to time zone crossing. See the DAL268 flight status page for this flight to view local times or setup timezone preferences in your user account.

Time Position Orientation Groundspeed Altitude Reporting Facility
EDT Latitude Longitude Course Direction KTS MPH feet Rate Location/Type
12:25AM 40.6330 -73.7800 North  Level FlightAware
12:36AM 40.9392 -73.5000 North  Level FlightAware Approximate
12:42AM 40.6350 -73.7720 208° Southwest 125 144  Level FlightAware
12:42AM 40.6180 -73.7850 210° Southwest 161 185 400 1,560 Climbing FlightAware
12:43AM 40.6060 -73.7950 212° Southwest 155 178 1,200 1,800 Climbing FlightAware
12:43AM 40.5920 -73.8060 211° Southwest 176 203 1,600 960 Climbing FlightAware
12:43AM 40.5800 -73.8130 204° Southwest 199 229 1,800 720 Climbing FlightAware
12:44AM 40.5720 -73.8150 191° South 210 242 1,900 1,140 Climbing FlightAware
12:44AM 40.5440 -73.8040 163° South 250 288 2,500 1,380 Climbing FlightAware
12:44AM 40.5330 -73.7920 140° Southeast 265 305 2,800 1,500 Climbing FlightAware
12:44AM 40.5260 -73.7820 133° Southeast 274 315 3,000 1,500 Climbing FlightAware
12:44AM 40.5206 -73.7708 122° Southeast 282 325 3,200 1,980 Climbing FlightAware ADS-B
12:45AM 40.5176 -73.7637 119° Southeast 286 329 3,400 2,700 Climbing FlightAware ADS-B
12:45AM 40.5115 -73.7375 107° East 287 330 4,100 2,640 Climbing FlightAware ADS-B
12:45AM 40.5121 -73.7178 88° East 299 344 4,600 2,520 Climbing FlightAware ADS-B
12:45AM 40.5130 -73.7123 78° East 301 346 4,700 1,500 Climbing FlightAware ADS-B
12:45AM 40.5154 -73.7032 71° East 303 349 4,800 1,320 Climbing FlightAware ADS-B
12:45AM 40.5180 -73.6959 65° Northeast 305 351 4,900 1,320 Climbing FlightAware ADS-B
12:45AM 40.5209 -73.6893 60° Northeast 305 351 5,000 1,200 Climbing FlightAware ADS-B
12:45AM 40.5251 -73.6815 55° Northeast 309 356 5,100 1,200 Climbing FlightAware ADS-B
12:45AM 40.5297 -73.6744 50° Northeast 312 359 5,200 2,100 Climbing FlightAware ADS-B
12:46AM 40.5450 -73.6539 46° Northeast 315 362 5,800 2,580 Climbing FlightAware ADS-B
12:46AM 40.5688 -73.6237 44° Northeast 320 368 6,800 2,700 Climbing FlightAware ADS-B
12:46AM 40.5851 -73.6025 45° Northeast 324 373 7,500 2,700 Climbing FlightAware ADS-B
12:46AM 40.5926 -73.5931 44° Northeast 328 377 7,800 2,160 Climbing FlightAware ADS-B
12:47AM 40.5972 -73.5876 42° Northeast 329 379 7,900 2,220 Climbing FlightAware ADS-B
12:47AM 40.6019 -73.5829 37° Northeast 330 380 8,100 2,280 Climbing FlightAware ADS-B
12:47AM 40.6139 -73.5731 32° Northeast 334 384 8,400 2,700 Climbing FlightAware ADS-B
12:47AM 40.6346 -73.5585 28° Northeast 334 384 9,200 2,880 Climbing FlightAware ADS-B
12:47AM 40.6572 -73.5454 24° Northeast 335 386 9,900 1,860 Climbing FlightAware ADS-B
12:48AM 40.7025 -73.5197 23° Northeast 359 413 10,700 1,380 Climbing FlightAware ADS-B
12:48AM 40.7531 -73.4915 23° Northeast 386 444 11,400 1,500 Climbing FlightAware ADS-B
12:49AM 40.8180 -73.4540 24° Northeast 411 473 12,500 1,980 Climbing FlightAware
12:49AM 40.8787 -73.4177 24° Northeast 397 457 13,800 2,280 Climbing FlightAware ADS-B
12:50AM 40.8984 -73.4048 26° Northeast 425 489 14,200 2,100 Climbing FlightAware ADS-B
12:50AM 40.9127 -73.3938 30° Northeast 427 491 14,500 2,280 Climbing FlightAware ADS-B
12:50AM 40.9653 -73.3410 37° Northeast 434 499 15,800 2,220 Climbing FlightAware ADS-B
12:51AM 41.0321 -73.2629 41° Northeast 441 507 17,400 2,040 Climbing FlightAware ADS-B
12:52AM 41.0799 -73.2074 41° Northeast 449 517 18,400 1,920 Climbing FlightAware ADS-B
12:52AM 41.1285 -73.1506 41° Northeast 456 525 19,400 1,800 Climbing FlightAware ADS-B
12:53AM 41.1779 -73.0929 41° Northeast 460 529 20,300 1,680 Climbing FlightAware ADS-B
12:53AM 41.2308 -73.0311 41° Northeast 467 537 21,200 1,980 Climbing FlightAware ADS-B
12:54AM 41.2797 -72.9738 41° Northeast 465 535 22,400 1,800 Climbing FlightAware ADS-B
12:55AM 41.3540 -72.8490 52° Northeast 481 554 23,800 1,440 Climbing FlightAware
12:55AM 41.3960 -72.7580 58° Northeast 489 563 24,600 900 Climbing FlightAware
12:56AM 41.4600 -72.6330 56° Northeast 497 572 25,200 720 Climbing FlightAware
12:57AM 41.5170 -72.5230 55° Northeast 509 586 25,800 1,260 Climbing FlightAware
12:57AM 41.4000 -72.7510 236° Southwest 26,900 1,560 Climbing FlightAware
12:58AM 41.6080 -72.3420 56° Northeast 525 604 27,500 960 Climbing FlightAware
12:59AM 41.6510 -72.2510 58° Northeast 530 610 28,100 1,020 Climbing FlightAware
12:59AM 41.6950 -72.1610 57° Northeast 534 615 28,700 1,080 Climbing FlightAware
01:00AM 41.7490 -72.0470 58° Northeast 536 617 29,400 1,200 Climbing FlightAware
01:00AM 41.7880 -71.9650 57° Northeast 536 617 30,100 1,320 Climbing FlightAware
01:01AM 41.8400 -71.8540 58° Northeast 536 617 31,000 1,140 Climbing FlightAware
01:01AM 41.8820 -71.7670 57° Northeast 537 618 31,500 1,080 Climbing FlightAware
01:02AM 41.9390 -71.6460 58° Northeast 535 616 32,400 1,200 Climbing FlightAware
01:03AM 41.9820 -71.5550 58° Northeast 534 615 33,000 480 Climbing FlightAware
01:03AM 42.0300 -71.4520 58° Northeast 534 615 33,000  Level FlightAware
01:04AM 42.0830 -71.3370 58° Northeast 528 608 33,000  Level FlightAware
01:04AM 42.1300 -71.2350 58° Northeast 527 606 33,000  Level FlightAware
01:05AM 42.1810 -71.1240 58° Northeast 528 608 33,000  Level FlightAware
01:06AM 42.2210 -71.0370 58° Northeast 528 608 33,000  Level FlightAware
01:06AM 42.2640 -70.9440 58° Northeast 523 602 33,000  Level FlightAware
01:07AM 42.3130 -70.8390 58° Northeast 528 608 33,000  Level FlightAware
01:07AM 42.3560 -70.7440 58° Northeast 527 606 33,000  Level FlightAware
01:08AM 42.4030 -70.6410 58° Northeast 528 608 33,000  Level FlightAware
01:09AM 42.4400 -70.5610 58° Northeast 531 611 33,000  Level FlightAware
01:09AM 42.4970 -70.4350 58° Northeast 533 613 33,000  Level FlightAware
01:10AM 42.5380 -70.3430 59° Northeast 533 613 33,000  Level FlightAware
01:11AM 42.5950 -70.2160 59° Northeast 534 615 33,000  Level FlightAware
01:11AM 42.6490 -70.0940 59° Northeast 535 616 33,000  Level FlightAware
01:12AM 42.6950 -69.9930 58° Northeast 541 623 33,000  Level FlightAware
01:12AM 42.7390 -69.8920 59° Northeast 537 618 33,000  Level FlightAware
01:13AM 42.7840 -69.7910 59° Northeast 540 621 33,000  Level FlightAware
01:14AM 42.8290 -69.6890 59° Northeast 539 620 33,000  Level FlightAware
01:14AM 42.8740 -69.5870 59° Northeast 539 620 33,000  Level FlightAware
01:15AM 42.9190 -69.4840 59° Northeast 538 619 33,000  Level FlightAware
01:15AM 42.9620 -69.3840 60° Northeast 538 619 33,000  Level FlightAware
01:16AM 43.0070 -69.2820 59° Northeast 537 618 33,000  Level FlightAware
01:17AM 43.0690 -69.1390 59° Northeast 537 618 33,000  Level FlightAware
01:17AM 43.1210 -69.0150 60° Northeast 530 610 33,000  Level FlightAware
01:18AM 43.1620 -68.9190 60° Northeast 530 610 33,000  Level FlightAware
01:19AM 43.2030 -68.8220 60° Northeast 530 610 33,000  Level FlightAware
01:19AM 43.2400 -68.7330 60° Northeast 530 610 33,000  Level FlightAware
01:20AM 43.2790 -68.6420 59° Northeast 530 610 33,000  Level FlightAware
01:20AM 43.3170 -68.5520 60° Northeast 530 610 33,000  Level FlightAware
01:21AM 43.3550 -68.4600 60° Northeast 530 610 33,000  Level FlightAware
01:22AM 43.3930 -68.3710 60° Northeast 530 610 33,000  Level FlightAware
01:22AM 43.4320 -68.2770 60° Northeast 530 610 33,000  Level FlightAware
01:23AM 43.4700 -68.1870 60° Northeast 530 610 33,000  Level FlightAware
01:23AM 43.5070 -68.0970 60° Northeast 530 610 33,000  Level FlightAware
01:24AM 43.5450 -68.0080 59° Northeast 530 610 33,000  Level FlightAware
01:25AM 43.5820 -67.9180 60° Northeast 530 610 33,000  Level FlightAware
01:25AM 43.6200 -67.8280 60° Northeast 530 610 33,000  Level FlightAware
01:26AM 43.6570 -67.7390 60° Northeast 530 610 33,000  Level FlightAware
01:26AM 43.6950 -67.6490 60° Northeast 530 610 33,000  Level FlightAware
01:27AM 43.7320 -67.5590 60° Northeast 530 610 33,000  Level FlightAware
01:28AM 43.7700 -67.4690 60° Northeast 530 610 33,000  Level FlightAware
01:29AM 43.9700 -66.9630 61° Northeast 537 618 33,000  Level FlightAware
01:29AM 44.0050 -66.8760 61° Northeast 537 618 33,000  Level FlightAware
01:30AM 44.0460 -66.7730 61° Northeast 537 618 33,000  Level FlightAware
01:31AM 44.0890 -66.6650 61° Northeast 535 616 33,000  Level FlightAware
01:31AM 44.1280 -66.5660 61° Northeast 535 616 33,000  Level FlightAware
01:32AM 44.1860 -66.4190 61° Northeast 533 613 33,000  Level FlightAware
01:33AM 44.2470 -66.2640 61° Northeast 532 612 33,000  Level FlightAware
01:34AM 44.3060 -66.1110 62° Northeast 532 612 33,000  Level FlightAware
01:34AM 44.3570 -65.9810 61° Northeast 531 611 33,000  Level FlightAware
01:35AM 44.3970 -65.8760 62° Northeast 531 611 33,000  Level FlightAware
01:36AM 44.4340 -65.7770 62° Northeast 531 611 33,000  Level FlightAware
01:36AM 44.4750 -65.6710 62° Northeast 530 610 33,000  Level FlightAware
01:37AM 44.5130 -65.5680 63° Northeast 467 537 33,000  Level FlightAware
01:37AM 44.5610 -65.4440 61° Northeast 528 608 33,000  Level FlightAware
01:38AM 44.6020 -65.3350 62° Northeast 525 604 33,000  Level FlightAware
01:39AM 44.6470 -65.2140 62° Northeast 522 601 33,000  Level FlightAware
01:39AM 44.6880 -65.1060 62° Northeast 521 600 33,000  Level FlightAware
01:40AM 44.7270 -65.0030 62° Northeast 521 600 33,000  Level FlightAware
01:40AM 44.7670 -64.8950 62° Northeast 522 601 33,000  Level FlightAware
01:41AM 44.8120 -64.7720 63° Northeast 522 601 33,000  Level FlightAware
01:42AM 44.8580 -64.6470 63° Northeast 522 601 33,000  Level FlightAware
01:42AM 44.9070 -64.5150 62° Northeast 521 600 33,000  Level FlightAware
01:43AM 44.9470 -64.4040 63° Northeast 520 598 33,000  Level FlightAware
01:44AM 44.9810 -64.3100 63° Northeast 520 598 33,000  Level FlightAware
01:44AM 45.0180 -64.2090 63° Northeast 520 598 33,000  Level FlightAware
01:45AM 45.0550 -64.1050 63° Northeast 521 600 33,000  Level FlightAware
01:45AM 45.0950 -63.9940 63° Northeast 520 598 33,000  Level FlightAware
01:46AM 45.1320 -63.8900 63° Northeast 520 598 33,000  Level FlightAware
01:47AM 45.1710 -63.7800 63° Northeast 521 600 33,000  Level FlightAware
01:47AM 45.2080 -63.6750 63° Northeast 522 601 33,000  Level FlightAware
01:48AM 45.2450 -63.5690 64° Northeast 523 602 33,000  Level FlightAware
01:48AM 45.2840 -63.4580 63° Northeast 523 602 33,000  Level FlightAware
01:49AM 45.3220 -63.3490 64° Northeast 524 603 33,000  Level FlightAware
01:49AM 45.3590 -63.2430 64° Northeast 524 603 33,000  Level FlightAware
01:50AM 45.3950 -63.1390 64° Northeast 524 603 33,000  Level FlightAware
01:51AM 45.4230 -63.0560 64° Northeast 524 603 33,000  Level FlightAware
01:51AM 45.4560 -62.9610 64° Northeast 524 603 33,000  Level FlightAware
01:52AM 45.4880 -62.8660 64° Northeast 524 603 33,000  Level FlightAware
01:52AM 45.5210 -62.7710 64° Northeast 524 603 33,000  Level FlightAware
01:53AM 45.5540 -62.6750 64° Northeast 524 603 33,000  Level FlightAware
01:54AM 45.5870 -62.5780 64° Northeast 524 603 33,000  Level FlightAware
01:54AM 45.6190 -62.4820 64° Northeast 524 603 33,000  Level FlightAware
01:55AM 45.6520 -62.3870 64° Northeast 524 603 33,000  Level FlightAware
01:55AM 45.6840 -62.2910 64° Northeast 524 603 33,000  Level FlightAware
01:56AM 45.7170 -62.1960 64° Northeast 524 603 33,000  Level FlightAware
01:57AM 45.7500 -62.0980 64° Northeast 524 603 33,000  Level FlightAware
01:57AM 45.7840 -62.0000 64° Northeast 524 603 33,000  Level FlightAware
01:58AM 45.9050 -61.6470 64° Northeast 511 588 33,000  Level FlightAware
01:59AM 45.9480 -61.5190 64° Northeast 511 588 33,000  Level FlightAware
01:59AM 45.9840 -61.4080 65° Northeast 510 587 33,000  Level FlightAware
02:00AM 46.0170 -61.3100 64° Northeast 510 587 33,000  Level FlightAware
02:01AM 46.0520 -61.2000 65° Northeast 507 583 33,000  Level FlightAware
02:01AM 46.0890 -61.0880 64° Northeast 507 583 33,000  Level FlightAware
02:02AM 46.1200 -60.9910 65° Northeast 506 582 33,000  Level FlightAware
02:02AM 46.1580 -60.8750 65° Northeast 506 582 33,000  Level FlightAware
02:03AM 46.1940 -60.7630 65° Northeast 506 582 33,000  Level FlightAware
02:03AM 46.2250 -60.6660 65° Northeast 507 583 33,000  Level FlightAware
02:04AM 46.2610 -60.5540 65° Northeast 507 583 33,000  Level FlightAware
02:05AM 46.2960 -60.4450 65° Northeast 507 583 33,000  Level FlightAware
02:05AM 46.3270 -60.3470 65° Northeast 508 585 33,000  Level FlightAware
02:06AM 46.3650 -60.2270 65° Northeast 509 586 33,000  Level FlightAware
02:06AM 46.3960 -60.1290 65° Northeast 510 587 33,000  Level FlightAware
02:07AM 46.4310 -60.0160 66° East 512 589 33,000  Level FlightAware
02:08AM 46.4670 -59.8990 66° East 513 590 33,000  Level FlightAware
02:08AM 46.4990 -59.7960 66° East 514 592 33,000  Level FlightAware
02:09AM 46.5350 -59.6820 65° Northeast 514 592 33,000  Level FlightAware
02:09AM 46.5690 -59.5720 66° East 513 590 33,000  Level FlightAware
02:10AM 46.6040 -59.4580 66° East 513 590 33,000  Level FlightAware
02:10AM 46.6350 -59.3570 66° East 512 589 33,000  Level FlightAware
02:11AM 46.6700 -59.2430 66° East 512 589 33,000  Level FlightAware
02:12AM 46.7030 -59.1350 66° East 512 589 33,000  Level FlightAware
02:12AM 46.7390 -59.0150 66° East 512 589 33,000  Level FlightAware
02:13AM 46.7690 -58.9120 67° East 512 589 33,000  Level FlightAware
02:13AM 46.8030 -58.8000 66° East 513 590 33,000  Level FlightAware
02:14AM 46.8370 -58.6850 67° East 514 592 33,000  Level FlightAware
02:15AM 46.8660 -58.5880 66° East 515 593 33,000  Level FlightAware
02:15AM 46.8960 -58.4880 66° East 516 594 33,000  Level FlightAware
02:16AM 46.9260 -58.3870 66° East 516 594 33,000  Level FlightAware
02:16AM 46.9570 -58.2870 66° East 516 594 33,000  Level FlightAware
02:17AM 46.9860 -58.1890 67° East 516 594 33,000  Level FlightAware
02:17AM 47.0330 -58.0160 68° East 520 598 33,000  Level FlightAware
02:18AM 47.0620 -57.9180 66° East 519 597 33,000  Level FlightAware
02:19AM 47.1020 -57.7800 67° East 520 598 33,000  Level FlightAware
02:19AM 47.1320 -57.6720 68° East 520 598 33,000  Level FlightAware
02:20AM 47.1730 -57.5270 67° East 522 601 33,000  Level FlightAware
02:21AM 47.2040 -57.4160 68° East 522 601 33,000  Level FlightAware
02:21AM 47.2350 -57.3080 67° East 523 602 33,000  Level FlightAware
02:22AM 47.2750 -57.1670 67° East 525 604 33,000  Level FlightAware
02:22AM 47.3120 -57.0360 67° East 523 602 33,000  Level FlightAware
02:23AM 47.3400 -56.9340 68° East 524 603 33,000  Level FlightAware
02:24AM 47.3750 -56.8110 67° East 524 603 33,000  Level FlightAware
02:24AM 47.4090 -56.6870 68° East 525 604 33,000  Level FlightAware
02:25AM 47.4410 -56.5720 68° East 525 604 33,000  Level FlightAware
02:25AM 47.4730 -56.4560 68° East 525 604 33,000  Level FlightAware
02:26AM 47.5100 -56.3210 68° East 523 602 33,000  Level FlightAware
02:27AM 47.5410 -56.2060 68° East 522 601 33,000  Level FlightAware
02:27AM 47.5690 -56.1000 69° East 521 600 33,000  Level FlightAware
02:28AM 47.6070 -55.9590 68° East 521 600 33,000  Level FlightAware
02:28AM 47.6320 -55.8650 68° East 520 598 33,000  Level FlightAware
02:29AM 47.6640 -55.7460 68° East 519 597 33,000  Level FlightAware
02:30AM 47.6990 -55.6110 69° East 518 596 33,000  Level FlightAware
02:30AM 47.7250 -55.5130 68° East 517 595 33,000  Level FlightAware
02:31AM 47.7570 -55.3940 68° East 517 595 33,000  Level FlightAware
02:31AM 47.7860 -55.2790 69° East 516 594 33,000  Level FlightAware
02:32AM 47.8170 -55.1620 68° East 516 594 33,000  Level FlightAware
02:32AM 47.8470 -55.0460 69° East 515 593 33,000  Level FlightAware
02:33AM 47.8770 -54.9300 69° East 516 594 33,000  Level FlightAware
02:34AM 47.9060 -54.8130 70° East 516 594 33,000  Level FlightAware
02:34AM 47.9400 -54.6810 69° East 516 594 33,000  Level FlightAware
02:35AM 47.9660 -54.5810 69° East 517 595 33,000  Level FlightAware
02:35AM 47.9950 -54.4650 69° East 518 596 33,000  Level FlightAware
02:36AM 48.0290 -54.3300 69° East 519 597 33,000  Level FlightAware
02:37AM 48.0540 -54.2300 69° East 519 597 33,000  Level FlightAware
02:37AM 48.0830 -54.1120 70° East 520 598 33,000  Level FlightAware
02:38AM 48.1170 -53.9760 69° East 520 598 33,000  Level FlightAware
02:38AM 48.1410 -53.8760 70° East 522 601 33,000  Level FlightAware
02:39AM 48.1700 -53.7570 70° East 522 601 33,000  Level FlightAware
02:39AM 48.2000 -53.6370 69° East 524 603 33,000  Level FlightAware
02:40AM 48.2280 -53.5190 70° East 523 602 33,000  Level FlightAware
02:41AM 48.2600 -53.3880 70° East 523 602 33,000  Level FlightAware
02:41AM 48.2860 -53.2780 70° East 523 602 33,000  Level FlightAware
02:42AM 48.3180 -53.1430 70° East 523 602 33,000  Level FlightAware
02:42AM 48.3420 -53.0380 71° East 523 602 33,000  Level FlightAware
02:43AM 48.3690 -52.9260 70° East 524 603 33,000  Level FlightAware
02:44AM 48.4030 -52.7810 70° East 525 604 33,000  Level FlightAware
02:44AM 48.4340 -52.6490 70° East 524 603 33,000 60 Level FlightAware
02:45AM 48.4630 -52.5200 71° East 522 601 33,100 300 Climbing FlightAware
02:46AM 48.4910 -52.3980 71° East 515 593 33,400 600 Climbing FlightAware
02:46AM 48.5160 -52.2870 71° East 515 593 33,800 660 Climbing FlightAware
02:47AM 48.5440 -52.1650 71° East 521 600 34,200 660 Climbing FlightAware
02:47AM 48.5710 -52.0430 71° East 523 602 34,600 540 Climbing FlightAware
02:48AM 48.5970 -51.9290 71° East 523 602 34,900 300 Climbing FlightAware
02:48AM 48.6250 -51.8040 71° East 524 603 35,000 60 Climbing FlightAware
02:49AM 48.6510 -51.6820 72° East 523 602 35,000  Level FlightAware
02:50AM 48.6780 -51.5630 71° East 525 604 35,000  Level FlightAware
02:50AM 48.7050 -51.4360 72° East 525 604 35,000  Level FlightAware
02:51AM 48.7340 -51.3020 72° East 526 605 35,000  Level FlightAware
02:51AM 48.7600 -51.1810 72° East 528 608 35,000  Level FlightAware
02:52AM 48.7850 -51.0640 72° East 529 609 35,000  Level FlightAware
02:53AM 48.8140 -50.9300 72° East 531 611 35,000  Level FlightAware
02:53AM 48.8390 -50.8110 72° East 531 611 35,000  Level FlightAware
02:54AM 48.8780 -50.6290 72° East 533 613 35,000  Level FlightAware
02:55AM 48.9040 -50.5050 72° East 532 612 35,000  Level FlightAware
02:55AM 48.9300 -50.3800 72° East 532 612 35,000  Level FlightAware
02:56AM 48.9590 -50.2390 73° East 532 612 35,000  Level FlightAware
02:57AM 48.9900 -50.0940 72° East 533 613 35,000  Level FlightAware
02:57AM 49.0130 -49.9840 72° East 533 613 35,000  Level FlightAware
02:58AM 49.0360 -49.8750 72° East 533 613 35,000  Level FlightAware
02:58AM 49.0600 -49.7650 72° East 533 613 35,000  Level FlightAware
02:59AM 49.0830 -49.6560 72° East 533 613 35,000  Level FlightAware
03:00AM 49.1060 -49.5460 72° East 533 613 35,000  Level FlightAware
03:00AM 49.1300 -49.4360 72° East 533 613 35,000  Level FlightAware
03:01AM 49.1530 -49.3270 72° East 533 613 35,000  Level FlightAware
03:01AM 49.1760 -49.2170 72° East 533 613 35,000  Level FlightAware
03:02AM 49.1990 -49.1070 72° East 533 613 35,000  Level FlightAware
03:03AM 49.2230 -48.9970 71° East 533 613 35,000  Level FlightAware
03:03AM 49.2460 -48.8870 72° East 533 613 35,000  Level FlightAware
03:04AM 49.2700 -48.7740 72° East 533 613 35,000  Level FlightAware
03:04AM 49.2930 -48.6640 72° East 533 613 35,000  Level FlightAware
03:05AM 49.3170 -48.5540 71° East 533 613 35,000  Level FlightAware
03:06AM 49.0000 -50.0000 69° East 538 619 35,000  Level ETMS Enhanced Traffic Management System
03:06AM 49.3400 -48.4440 72° East 533 613 35,000  Level FlightAware
03:06AM 49.4500 -47.9167 69° East 540 621 35,000  Level Gander Center
03:07AM 49.4880 -47.9510 65° Northeast 35,000  Level FlightAware
03:07AM 49.5000 -47.7167 69° East 540 621 35,000  Level Gander Center
03:08AM 49.5500 -47.5000 70° East 540 621 35,000  Level Gander Center
03:09AM 49.6000 -47.3000 69° East 540 621 35,000  Level Gander Center
03:11AM 49.6573 -47.0487 71° East  Level FlightAware Approximate
03:18AM 49.9898 -45.5288 71° East  Level FlightAware Approximate
03:19AM 50.0356 -45.3100 72° East  Level FlightAware Approximate
03:20AM 50.0811 -45.0908 72° East  Level FlightAware Approximate
03:21AM 50.1261 -44.8711 72° East  Level FlightAware Approximate
03:22AM 50.1707 -44.6511 72° East  Level FlightAware Approximate
03:23AM 50.2150 -44.4306 73° East  Level FlightAware Approximate
03:24AM 50.2587 -44.2097 73° East  Level FlightAware Approximate
03:25AM 50.3021 -43.9884 73° East  Level FlightAware Approximate
03:26AM 50.3451 -43.7667 73° East  Level FlightAware Approximate
03:27AM 50.3876 -43.5447 73° East  Level FlightAware Approximate
03:28AM 50.4297 -43.3222 73° East  Level FlightAware Approximate
03:29AM 50.4714 -43.0993 74° East  Level FlightAware Approximate
03:30AM 50.5126 -42.8760 74° East  Level FlightAware Approximate
03:31AM 50.5534 -42.6524 74° East  Level FlightAware Approximate
03:32AM 50.5938 -42.4283 74° East  Level FlightAware Approximate
03:33AM 50.6335 -42.2057 74° East  Level FlightAware Approximate
03:34AM 50.6727 -41.9827 74° East  Level FlightAware Approximate
03:35AM 50.7115 -41.7593 75° East  Level FlightAware Approximate
03:36AM 50.7499 -41.5355 75° East  Level FlightAware Approximate
03:37AM 50.7878 -41.3114 75° East  Level FlightAware Approximate
03:38AM 50.8253 -41.0869 75° East  Level FlightAware Approximate
03:39AM 50.8624 -40.8621 75° East  Level FlightAware Approximate
03:40AM 50.8990 -40.6369 75° East  Level FlightAware Approximate
03:41AM 50.9352 -40.4113 76° East  Level FlightAware Approximate
03:42AM 50.9710 -40.1854 76° East  Level FlightAware Approximate
03:43AM 51.0096 -39.9604 69° East  Level FlightAware Approximate
03:44AM 51.0621 -39.7425 69° East  Level FlightAware Approximate
03:45AM 51.1142 -39.5241 69° East  Level FlightAware Approximate
03:45AM 51.0000 -40.0000 68° East 582 670 35,000  Level ETMS Enhanced Traffic Management System
03:46AM 51.1660 -39.3053 69° East  Level FlightAware Approximate
03:47AM 51.2173 -39.0859 69° East  Level FlightAware Approximate
03:48AM 51.2681 -38.8661 70° East  Level FlightAware Approximate
03:49AM 51.3200 -38.6465 69° East  Level FlightAware Approximate
03:50AM 51.3719 -38.4269 69° East  Level FlightAware Approximate
03:51AM 51.5783 -37.5857 70° East 582 670 35,000  Level FlightAware Transoceanic
03:52AM 51.6334 -37.3410 70° East 582 670 35,000  Level FlightAware Transoceanic
03:53AM 51.6880 -37.0956 70° East 582 670 35,000  Level FlightAware Transoceanic
03:54AM 51.7420 -36.8497 71° East 582 670 35,000  Level FlightAware Transoceanic
03:55AM 51.7956 -36.6032 71° East 582 670 35,000  Level FlightAware Transoceanic
03:56AM 51.8486 -36.3561 71° East 582 670 35,000  Level FlightAware Transoceanic
03:57AM 51.9011 -36.1084 71° East 582 670 35,000  Level FlightAware Transoceanic
03:58AM 51.9531 -35.8602 71° East 582 670 35,000  Level FlightAware Transoceanic
03:59AM 52.0045 -35.6114 72° East 582 670 35,000  Level FlightAware Transoceanic
04:00AM 52.0555 -35.3619 72° East 582 670 35,000  Level FlightAware Transoceanic
04:01AM 52.1059 -35.1120 72° East 582 670 35,000  Level FlightAware Transoceanic
04:02AM 52.1558 -34.8615 72° East 582 670 35,000  Level FlightAware Transoceanic
04:03AM 52.2051 -34.6104 72° East 582 670 35,000  Level FlightAware Transoceanic
04:04AM 52.2539 -34.3587 73° East 582 670 35,000  Level FlightAware Transoceanic
04:05AM 52.3022 -34.1065 73° East 582 670 35,000  Level FlightAware Transoceanic
04:06AM 52.3499 -33.8538 73° East 582 670 35,000  Level FlightAware Transoceanic
04:07AM 52.3971 -33.6005 73° East 582 670 35,000  Level FlightAware Transoceanic
04:08AM 52.4438 -33.3467 73° East 582 670 35,000  Level FlightAware Transoceanic
04:09AM 52.4899 -33.0924 74° East 582 670 35,000  Level FlightAware Transoceanic
04:10AM 52.5354 -32.8375 74° East 582 670 35,000  Level FlightAware Transoceanic
04:11AM 52.5805 -32.5821 74° East 582 670 35,000  Level FlightAware Transoceanic
04:12AM 52.6249 -32.3261 74° East 582 670 35,000  Level FlightAware Transoceanic
04:13AM 52.6688 -32.0697 74° East 582 670 35,000  Level FlightAware Transoceanic
04:14AM 52.7122 -31.8127 75° East 582 670 35,000  Level FlightAware Transoceanic
04:15AM 52.7550 -31.5552 75° East 582 670 35,000  Level FlightAware Transoceanic
04:16AM 52.7972 -31.2973 75° East 582 670 35,000  Level FlightAware Transoceanic
04:17AM 52.8389 -31.0388 75° East 582 670 35,000  Level FlightAware Transoceanic
04:18AM 52.8800 -30.7798 75° East 582 670 35,000  Level FlightAware Transoceanic
04:19AM 52.9206 -30.5204 76° East 582 670 35,000  Level FlightAware Transoceanic
04:20AM 52.9606 -30.2604 76° East 582 670 35,000  Level FlightAware Transoceanic
04:20AM 53.0000 -30.0000 76° East 586 674 35,000  Level ETMS Enhanced Traffic Management System
04:21AM 52.9964 -30.0241 76° East  Level FlightAware Approximate
04:22AM 53.0318 -29.7869 76° East  Level FlightAware Approximate
04:23AM 53.0273 -29.8103 76° East  Level FlightAware Approximate
04:24AM 53.0611 -29.5723 77° East  Level FlightAware Approximate
04:25AM 53.0945 -29.3340 77° East  Level FlightAware Approximate
04:26AM 53.2527 -28.1471 78° East 586 674 35,000  Level FlightAware Transoceanic
04:27AM 53.2864 -27.8807 78° East 586 674 35,000  Level FlightAware Transoceanic
04:28AM 53.3195 -27.6138 78° East 586 674 35,000  Level FlightAware Transoceanic
04:29AM 53.3521 -27.3466 79° East 586 674 35,000  Level FlightAware Transoceanic
04:30AM 53.3840 -27.0789 79° East 586 674 35,000  Level FlightAware Transoceanic
04:31AM 53.4154 -26.8108 79° East 586 674 35,000  Level FlightAware Transoceanic
04:32AM 53.4461 -26.5424 79° East 586 674 35,000  Level FlightAware Transoceanic
04:33AM 53.4762 -26.2735 79° East 586 674 35,000  Level FlightAware Transoceanic
04:34AM 53.5058 -26.0043 80° East 586 674 35,000  Level FlightAware Transoceanic
04:35AM 53.5347 -25.7347 80° East 586 674 35,000  Level FlightAware Transoceanic
04:36AM 53.5630 -25.4647 80° East 586 674 35,000  Level FlightAware Transoceanic
04:37AM 53.5908 -25.1944 80° East 586 674 35,000  Level FlightAware Transoceanic
04:38AM 53.6179 -24.9237 81° East 586 674 35,000  Level FlightAware Transoceanic
04:39AM 53.6443 -24.6527 81° East 586 674 35,000  Level FlightAware Transoceanic
04:40AM 53.6702 -24.3814 81° East 586 674 35,000  Level FlightAware Transoceanic
04:41AM 53.6955 -24.1097 81° East 586 674 35,000  Level FlightAware Transoceanic
04:42AM 53.7201 -23.8377 81° East 586 674 35,000  Level FlightAware Transoceanic
04:43AM 53.7442 -23.5654 82° East 586 674 35,000  Level FlightAware Transoceanic
04:44AM 53.7676 -23.2927 82° East 586 674 35,000  Level FlightAware Transoceanic
04:45AM 53.7904 -23.0198 82° East 586 674 35,000  Level FlightAware Transoceanic
04:46AM 53.8126 -22.7466 82° East 586 674 35,000  Level FlightAware Transoceanic
04:47AM 53.8341 -22.4731 83° East 586 674 35,000  Level FlightAware Transoceanic
04:48AM 53.8551 -22.1993 83° East 586 674 35,000  Level FlightAware Transoceanic
04:49AM 53.8754 -21.9253 83° East 586 674 35,000  Level FlightAware Transoceanic
04:50AM 53.8951 -21.6509 83° East 586 674 35,000  Level FlightAware Transoceanic
04:51AM 53.9141 -21.3764 83° East 586 674 35,000  Level FlightAware Transoceanic
04:52AM 53.9326 -21.1016 84° East 586 674 35,000  Level FlightAware Transoceanic
04:53AM 53.9504 -20.8265 84° East 586 674 35,000  Level FlightAware Transoceanic
04:54AM 53.9675 -20.5512 84° East 586 674 35,000  Level FlightAware Transoceanic
04:55AM 53.9841 -20.2757 84° East 586 674 35,000  Level FlightAware Transoceanic
04:56AM 53.9985 -20.0269 84° East  Level FlightAware Approximate
04:57AM 54.0123 -19.7775 84° East  Level FlightAware Approximate
04:58AM 53.9877 -19.8043 96° East  Level FlightAware Approximate
04:59AM 53.9715 -19.5554 96° East  Level FlightAware Approximate
05:00AM 53.9549 -19.3067 96° East  Level FlightAware Approximate
05:01AM 53.9377 -19.0582 97° East  Level FlightAware Approximate
05:02AM 53.9201 -18.8099 97° East  Level FlightAware Approximate
05:03AM 53.9019 -18.5619 97° East  Level FlightAware Approximate
05:04AM 53.8832 -18.3140 97° East  Level FlightAware Approximate
05:05AM 53.8640 -18.0664 97° East  Level FlightAware Approximate
05:06AM 53.8443 -17.8190 98° East  Level FlightAware Approximate
05:07AM 53.8240 -17.5719 98° East  Level FlightAware Approximate
05:08AM 53.8044 -17.3247 97° East  Level FlightAware Approximate
05:09AM 53.7849 -17.0776 98° East  Level FlightAware Approximate
05:10AM 53.7649 -16.8307 98° East  Level FlightAware Approximate
05:11AM 53.7444 -16.5841 98° East  Level FlightAware Approximate
05:12AM 53.7234 -16.3377 98° East  Level FlightAware Approximate
05:13AM 53.7018 -16.0916 98° East  Level FlightAware Approximate
05:14AM 53.6798 -15.8458 99° East  Level FlightAware Approximate
05:14AM 53.9710 -14.2860 99° East 604 695 35,400  Level FlightAware
05:14AM 53.9480 -14.1260 104° East 600 690 35,700 480 Climbing FlightAware
05:15AM 53.9200 -13.9480 105° East 593 682 36,000 420 Climbing FlightAware
05:15AM 53.8960 -13.8090 106° East 587 676 36,200 420 Climbing FlightAware
05:16AM 53.8680 -13.6520 107° East 582 670 36,500 480 Climbing FlightAware
05:17AM 53.8420 -13.5050 107° East 580 667 36,800 420 Climbing FlightAware
05:17AM 53.8160 -13.3530 106° East 579 666 37,000 120 Climbing FlightAware
05:18AM 53.7890 -13.1970 106° East 579 666 37,000  Level FlightAware
05:19AM 53.7540 -13.0000 107° East 578 665 37,000  Level FlightAware
05:19AM 53.7270 -12.8520 107° East 577 664 37,000  Level FlightAware
05:20AM 53.7040 -12.7210 106° East 574 661 37,000  Level FlightAware
05:20AM 53.6730 -12.5490 107° East 574 661 37,000  Level FlightAware
05:21AM 53.6490 -12.4180 107° East 575 662 37,000  Level FlightAware
05:21AM 53.6230 -12.2730 107° East 576 663 37,000  Level FlightAware
05:22AM 53.5910 -12.1010 107° East 576 663 37,000  Level FlightAware
05:23AM 53.5670 -11.9740 108° East 579 666 37,000  Level FlightAware
05:23AM 53.5380 -11.8180 107° East 582 670 37,000  Level FlightAware
05:24AM 53.5060 -11.6470 107° East 584 672 37,000  Level FlightAware
05:24AM 53.4760 -11.4930 108° East 586 674 37,000  Level FlightAware
05:25AM 53.4520 -11.3660 108° East 587 676 37,000  Level FlightAware
05:25AM 53.4220 -11.2110 108° East 586 674 37,000  Level FlightAware
05:26AM 53.3930 -11.0630 108° East 588 677 37,000  Level FlightAware
05:27AM 53.3580 -10.8860 108° East 588 677 37,000  Level FlightAware
05:27AM 53.3330 -10.7590 108° East 591 680 37,000  Level FlightAware
05:28AM 53.3030 -10.6040 108° East 592 681 37,000  Level FlightAware
05:28AM 53.2710 -10.4330 107° East 593 682 37,000  Level FlightAware
05:29AM 53.2450 -10.3010 108° East 591 680 37,000  Level FlightAware
05:30AM 53.2150 -10.1500 108° East 591 680 37,000  Level FlightAware
05:30AM 53.1790 -9.9750 109° East 593 682 37,000  Level FlightAware
05:31AM 53.1530 -9.8480 109° East 594 684 37,000  Level FlightAware
05:31AM 53.1210 -9.6960 109° East 594 684 37,000  Level FlightAware
05:32AM 53.0850 -9.5240 109° East 592 681 37,000  Level FlightAware
05:32AM 53.0570 -9.3970 110° East 593 682 37,000  Level FlightAware
05:33AM 53.0240 -9.2450 110° East 592 681 37,000  Level FlightAware
05:34AM 52.9860 -9.0730 110° East 594 684 37,000  Level FlightAware
05:34AM 52.9580 -8.9450 110° East 594 684 37,000  Level FlightAware
05:35AM 52.9200 -8.7730 110° East 594 684 37,000  Level FlightAware
05:35AM 52.8870 -8.6250 110° East 598 688 37,000  Level FlightAware
05:36AM 52.8580 -8.4940 110° East 598 688 37,000  Level FlightAware
05:37AM 52.8250 -8.3480 110° East 597 687 37,000  Level FlightAware
05:37AM 52.8067 -8.3379 110° East 490 564 37,000  Level FlightAware UK
05:37AM 52.7775 -8.2097 110° East 488 562 37,000  Level FlightAware UK
05:37AM 52.7850 -8.1720 110° East 598 688 37,000  Level FlightAware
05:38AM 52.7530 -8.0290 110° East 597 687 37,000  Level FlightAware
05:38AM 52.7230 -7.9000 111° Southeast 596 686 37,000  Level FlightAware
05:39AM 52.6880 -7.7500 111° Southeast 593 682 37,000  Level FlightAware
05:40AM 52.6290 -7.5727 111° Southeast 484 557 37,000  Level FlightAware UK
05:40AM 52.6420 -7.5600 111° Southeast 592 681 37,000  Level FlightAware
05:40AM 52.6020 -7.3910 111° Southeast 592 681 37,000  Level FlightAware
05:41AM 52.5660 -7.2420 112° Southeast 592 681 37,000  Level FlightAware
05:41AM 52.5310 -7.0970 112° Southeast 593 682 37,000  Level FlightAware
05:42AM 52.4776 -6.9417 112° Southeast 484 557 37,000  Level FlightAware UK
05:42AM 52.4900 -6.9280 112° Southeast 595 685 37,000  Level FlightAware
05:43AM 52.4600 -6.8010 111° Southeast 595 685 37,000  Level FlightAware
05:43AM 52.4190 -6.6320 112° Southeast 599 689 37,000  Level FlightAware
05:44AM 52.3860 -6.4970 112° Southeast 601 692 37,000  Level FlightAware
05:44AM 52.3490 -6.3470 112° Southeast 603 694 37,000  Level FlightAware
05:45AM 52.3080 -6.1850 112° Southeast 603 694 37,000  Level FlightAware
05:46AM 52.2770 -6.0620 112° Southeast 604 695 37,000  Level FlightAware
05:46AM 52.2598 -6.0580 112° Southeast 490 564 37,000  Level FlightAware UK
05:46AM 52.2278 -5.9311 112° Southeast 488 562 37,000  Level FlightAware UK
05:46AM 52.2430 -5.9270 112° Southeast 603 694 37,000  Level FlightAware
05:47AM 52.1960 -5.8051 112° Southeast 488 562 37,000  Level FlightAware UK
05:47AM 52.2040 -5.7500 112° Southeast 599 689 37,000  Level FlightAware
05:47AM 52.1850 -5.6050 102° East 598 688 37,000  Level FlightAware
05:48AM 52.1640 -5.4410 102° East 599 689 37,000  Level FlightAware
05:48AM 52.1440 -5.2940 102° East 600 690 37,000  Level FlightAware
05:49AM 52.1190 -5.1300 104° East 601 692 37,000  Level FlightAware
05:50AM 52.0980 -4.9910 104° East 602 693 37,000  Level FlightAware
05:50AM 52.0820 -4.9877 104° East 486 559 37,000  Level FlightAware UK
05:50AM 52.0620 -4.8562 104° East 486 559 37,000  Level FlightAware UK
05:50AM 52.0750 -4.8330 104° East 602 693 37,000  Level FlightAware
05:51AM 52.0596 -4.7258 103° East 602 693 37,000  Level FlightAware ADS-B
05:51AM 52.0254 -4.5912 103° East 488 562 37,000  Level FlightAware UK
05:51AM 52.0305 -4.5194 103° East 602 693 37,000  Level FlightAware ADS-B
05:52AM 52.0057 -4.3469 103° East 603 694 37,000  Level FlightAware ADS-B
05:53AM 51.9850 -4.2070 103° East 602 693 37,000  Level FlightAware
05:53AM 51.9741 -4.1310 103° East 602 693 37,000  Level FlightAware ADS-B
05:54AM 51.9420 -3.9140 103° East 598 688 37,000  Level FlightAware
05:54AM 51.9190 -3.7590 103° East 596 686 37,000  Level FlightAware
05:55AM 51.8950 -3.6010 104° East 593 682 37,000  Level FlightAware
05:55AM 51.8740 -3.4660 104° East 590 679 37,000  Level FlightAware
05:55AM 51.8594 -3.4659 104° East 490 564 37,000  Level FlightAware UK
05:56AM 51.8474 -3.2922 104° East 586 674 37,000  Level FlightAware ADS-B
05:57AM 51.8258 -3.1532 104° East 584 672 37,000  Level FlightAware ADS-B
05:57AM 51.8042 -3.0153 104° East 580 667 37,000  Level FlightAware ADS-B
05:58AM 51.7839 -2.8871 104° East 578 665 37,000  Level FlightAware ADS-B
05:58AM 51.7633 -2.7574 104° East 577 664 37,000  Level FlightAware ADS-B
05:59AM 51.7429 -2.6291 104° East 576 663 37,000  Level FlightAware ADS-B
05:59AM 51.7223 -2.5027 105° East 574 661 37,000  Level FlightAware ADS-B
06:00AM 51.7021 -2.3785 105° East 572 658 37,000  Level FlightAware ADS-B
06:00AM 51.6806 -2.2481 105° East 570 656 37,000  Level FlightAware ADS-B
06:01AM 51.6596 -2.1218 105° East 569 655 37,000  Level FlightAware ADS-B
06:01AM 51.6388 -1.9964 105° East 570 656 37,000  Level FlightAware ADS-B
06:02AM 51.6167 -1.8655 105° East 569 655 37,000  Level FlightAware ADS-B
06:02AM 51.5947 -1.7360 105° East 569 655 37,000  Level FlightAware ADS-B
06:03AM 51.5734 -1.6114 105° East 568 654 37,000  Level FlightAware ADS-B
06:03AM 51.5522 -1.4880 105° East 568 654 37,000  Level FlightAware ADS-B
06:04AM 51.5305 -1.3640 106° East 567 652 37,000  Level FlightAware ADS-B
06:04AM 51.5144 -1.2683 105° East 565 650 37,000  Level FlightAware ADS-B
06:05AM 51.4976 -1.1411 102° East 561 646 37,000  Level FlightAware ADS-B
06:05AM 51.4858 -1.0117 98° East 558 642 37,000  Level FlightAware ADS-B
06:06AM 51.4747 -0.8849 98° East 556 640 37,000  Level FlightAware ADS-B
06:06AM 51.4635 -0.7597 98° East 556 640 37,000  Level FlightAware ADS-B
06:07AM 51.4520 -0.6306 98° East 556 640 37,000  Level FlightAware ADS-B
06:07AM 51.4405 -0.5057 98° East 554 638 37,000  Level FlightAware ADS-B
06:08AM 51.4284 -0.3760 98° East 552 635 37,000  Level FlightAware ADS-B
06:08AM 51.4168 -0.2522 99° East 551 634 37,000  Level FlightAware ADS-B
06:09AM 51.4033 -0.1125 99° East 549 632 37,000  Level FlightAware ADS-B
06:10AM 51.3911 0.0111 99° East 550 633 37,000  Level FlightAware ADS-B
06:10AM 51.3788 0.1360 99° East 550 633 37,000  Level FlightAware ADS-B
06:11AM 51.3667 0.2590 99° East 550 633 37,000  Level FlightAware ADS-B
06:11AM 51.3533 0.3910 99° East 549 632 37,000  Level FlightAware ADS-B
06:12AM 51.3409 0.5135 99° East 548 631 37,000  Level FlightAware ADS-B
06:12AM 51.3282 0.6374 99° East 547 629 37,000  Level FlightAware ADS-B
06:13AM 51.3150 0.7633 99° East 548 631 37,000  Level FlightAware ADS-B
06:13AM 51.3015 0.8910 100° East 548 631 37,000  Level FlightAware ADS-B
06:14AM 51.2885 1.0143 100° East 548 631 37,000  Level FlightAware ADS-B
06:15AM 51.2683 1.2038 100° East 547 629 37,000  Level FlightAware ADS-B
06:15AM 51.2470 1.3850 101° East 548 631 37,000  Level FlightAware
06:16AM 51.2190 1.5190 108° East 550 633 37,000  Level FlightAware
06:16AM 51.1778 1.6254 108° East 498 573 37,000  Level FlightAware UK
06:16AM 51.1820 1.6540 108° East 550 633 37,000  Level FlightAware
06:17AM 51.1450 1.7840 114° Southeast 550 633 37,000  Level FlightAware
06:18AM 51.1120 1.9010 114° Southeast 550 633 37,000  Level FlightAware
06:18AM 51.0720 2.0380 115° Southeast 550 633 37,000  Level FlightAware
06:19AM 51.0350 2.1650 115° Southeast 549 632 37,000  Level FlightAware
06:19AM 51.0259 2.1557 115° Southeast 498 573 37,000  Level FlightAware UK
06:19AM 50.9960 2.2980 115° Southeast 549 632 37,000  Level FlightAware
06:20AM 50.9620 2.4130 115° Southeast 547 629 37,000  Level FlightAware
06:20AM 50.9270 2.5330 115° Southeast 546 628 37,000  Level FlightAware
06:21AM 50.8840 2.6760 115° Southeast 544 626 37,000  Level FlightAware
06:22AM 50.8530 2.7810 115° Southeast 543 625 37,000  Level FlightAware
06:22AM 50.8040 2.9440 115° Southeast 540 621 37,000  Level FlightAware
06:23AM 50.7630 3.0800 115° Southeast 538 619 37,000  Level FlightAware
06:24AM 50.7310 3.1880 115° Southeast 536 617 37,000  Level FlightAware
06:24AM 50.6920 3.3110 117° Southeast 535 616 37,000  Level FlightAware
06:25AM 50.6510 3.4430 116° Southeast 535 616 37,000  Level FlightAware
06:25AM 50.6140 3.5600 116° Southeast 533 613 37,000  Level FlightAware
06:26AM 50.5800 3.6710 116° Southeast 534 615 37,000  Level FlightAware
06:26AM 50.5335 3.7792 116° Southeast 494 568 37,000  Level FlightAware UK
06:27AM 50.5370 3.8040 116° Southeast 533 613 37,000  Level FlightAware
06:27AM 50.5040 3.9090 116° Southeast 534 615 37,000  Level FlightAware
06:28AM 50.4620 4.0410 117° Southeast 533 613 37,000  Level FlightAware
06:28AM 50.4200 4.1740 116° Southeast 533 613 37,000  Level FlightAware
06:29AM 50.3860 4.2820 116° Southeast 532 612 37,000  Level FlightAware
06:29AM 50.3470 4.4030 116° Southeast 533 613 37,000  Level FlightAware
06:29AM 50.3343 4.4011 116° Southeast 1 1 37,000  Level FlightAware UK
06:30AM 50.3090 4.5230 116° Southeast 533 613 37,000  Level FlightAware
06:31AM 50.2720 4.6390 116° Southeast 533 613 37,000  Level FlightAware
06:31AM 50.2300 4.7690 117° Southeast 531 611 37,000  Level FlightAware
06:32AM 50.1930 4.8840 117° Southeast 531 611 37,000  Level FlightAware
06:32AM 50.1590 4.9860 117° Southeast 530 610 37,000  Level FlightAware
06:33AM 50.1120 5.1320 117° Southeast 528 608 37,000  Level FlightAware
06:33AM 50.0760 5.2400 117° Southeast 527 606 37,000  Level FlightAware
06:34AM 50.0340 5.3660 117° Southeast 526 605 37,000  Level FlightAware
06:35AM 49.9950 5.4830 117° Southeast 525 604 37,000  Level FlightAware
06:35AM 49.9600 5.5880 117° Southeast 524 603 37,000  Level FlightAware
06:36AM 49.9210 5.7040 118° Southeast 523 602 37,000  Level FlightAware
06:36AM 49.8830 5.8170 118° Southeast 522 601 37,000  Level FlightAware
06:37AM 49.8400 5.9420 118° Southeast 521 600 37,000  Level FlightAware
06:38AM 49.8000 6.0600 118° Southeast 520 598 37,000  Level FlightAware
06:38AM 49.7610 6.1740 118° Southeast 518 596 37,000  Level FlightAware
06:39AM 49.7210 6.2920 118° Southeast 517 595 37,000  Level FlightAware
06:39AM 49.6810 6.4060 118° Southeast 515 593 37,000  Level FlightAware
06:40AM 49.6460 6.5060 118° Southeast 514 592 37,000  Level FlightAware
06:40AM 49.6050 6.6270 118° Southeast 513 590 37,000  Level FlightAware
06:41AM 49.5650 6.7400 119° Southeast 512 589 37,000  Level FlightAware
06:42AM 49.5250 6.8550 118° Southeast 511 588 37,000  Level FlightAware
06:42AM 49.4840 6.9720 118° Southeast 510 587 37,000  Level FlightAware
06:43AM 49.4480 7.0720 119° Southeast 510 587 37,000  Level FlightAware
06:43AM 49.4070 7.1880 118° Southeast 511 588 37,000  Level FlightAware
06:44AM 49.3660 7.3020 119° Southeast 511 588 37,000  Level FlightAware
06:45AM 49.3270 7.4100 119° Southeast 510 587 37,000  Level FlightAware
06:45AM 49.2880 7.5170 119° Southeast 510 587 37,000  Level FlightAware
06:46AM 49.2500 7.6220 119° Southeast 510 587 37,000  Level FlightAware
06:47AM 49.1870 7.7960 119° Southeast 508 585 37,000  Level FlightAware
06:47AM 49.1530 7.8900 119° Southeast 508 585 37,000  Level FlightAware
06:48AM 49.1100 8.0110 118° Southeast 509 586 37,000  Level FlightAware
06:48AM 49.0720 8.1160 119° Southeast 509 586 37,000  Level FlightAware
06:49AM 49.0280 8.2350 119° Southeast 508 585 37,000  Level FlightAware
06:49AM 48.9930 8.3330 119° Southeast 509 586 37,000  Level FlightAware
06:50AM 48.9540 8.4380 119° Southeast 508 585 37,000  Level FlightAware
06:51AM 48.9080 8.5610 120° Southeast 508 585 37,000  Level FlightAware
06:51AM 48.8700 8.6550 122° Southeast 507 583 37,000  Level FlightAware
06:52AM 48.8140 8.7580 130° Southeast 501 577 37,000  Level FlightAware
06:52AM 48.7480 8.8490 138° Southeast 497 572 37,000  Level FlightAware
06:53AM 48.6840 8.9340 139° Southeast 496 571 37,000  Level FlightAware
06:54AM 48.6240 9.0130 139° Southeast 496 571 37,000  Level FlightAware
06:54AM 48.5600 9.0950 140° Southeast 494 568 37,000  Level FlightAware
06:55AM 48.5120 9.1520 142° Southeast 493 567 37,000  Level FlightAware
06:56AM 48.4240 9.2530 143° Southeast 492 566 37,000  Level FlightAware
06:56AM 48.3670 9.3180 143° Southeast 491 565 37,000  Level FlightAware
06:57AM 48.3180 9.3720 144° Southeast 491 565 37,000  Level FlightAware
06:57AM 48.2550 9.4430 143° Southeast 491 565 37,000  Level FlightAware
06:58AM 48.1840 9.5020 151° Southeast 487 560 37,000  Level FlightAware
06:58AM 48.1190 9.5510 153° Southeast 487 560 37,000  Level FlightAware
06:59AM 48.0220 9.6220 154° Southeast 481 554 37,000  Level FlightAware
07:00AM 47.9570 9.6690 154° Southeast 476 548 37,000  Level FlightAware
07:00AM 47.8790 9.7240 155° Southeast 474 545 37,000  Level FlightAware
07:01AM 47.8080 9.7740 155° Southeast 473 544 37,000  Level FlightAware
07:02AM 47.7250 9.8320 155° Southeast 471 542 37,000  Level FlightAware
07:02AM 47.6640 9.8740 155° Southeast 463 533 37,000  Level FlightAware
07:03AM 47.5920 9.9230 155° Southeast 470 541 37,000  Level FlightAware
07:03AM 47.5290 9.9650 156° South 470 541 37,000  Level FlightAware
07:04AM 47.4320 10.0300 156° South 471 542 37,000  Level FlightAware
07:05AM 47.3710 10.0710 156° South 472 543 37,000  Level FlightAware
07:05AM 47.3100 10.1110 156° South 473 544 37,000  Level FlightAware
07:06AM 47.2270 10.1670 155° Southeast 478 550 37,000  Level FlightAware
07:06AM 47.1550 10.2150 156° South 482 555 37,000  Level FlightAware
07:07AM 47.0860 10.2610 156° South 483 556 37,000  Level FlightAware
07:07AM 47.0130 10.3090 156° South 484 557 37,000  Level FlightAware
07:08AM 46.9320 10.3630 156° South 486 559 37,000  Level FlightAware
07:09AM 46.8570 10.4120 156° South 488 562 37,000  Level FlightAware
07:09AM 46.7840 10.4620 155° Southeast 490 564 37,000  Level FlightAware
07:10AM 46.7200 10.5390 140° Southeast 496 571 37,000  Level FlightAware
07:10AM 46.6800 10.6170 127° Southeast 498 573 37,000  Level FlightAware
07:11AM 46.6250 10.7280 126° Southeast 499 574 37,000  Level FlightAware
07:12AM 46.5800 10.8180 126° Southeast 501 577 37,000  Level FlightAware
07:12AM 46.5300 10.9160 127° Southeast 502 578 37,000  Level FlightAware
07:13AM 46.4810 11.0120 127° Southeast 503 579 37,000  Level FlightAware
07:13AM 46.4350 11.1010 127° Southeast 503 579 37,000  Level FlightAware
07:14AM 46.3830 11.2030 126° Southeast 501 577 37,000  Level FlightAware
07:15AM 46.3400 11.2860 127° Southeast 499 574 37,000  Level FlightAware
07:15AM 46.2900 11.3830 127° Southeast 496 571 37,000  Level FlightAware
07:16AM 46.2460 11.4670 127° Southeast 495 570 37,000  Level FlightAware
07:16AM 46.1980 11.5610 126° Southeast 493 567 37,000  Level FlightAware
07:17AM 46.1450 11.6620 127° Southeast 493 567 37,000  Level FlightAware
07:17AM 46.0990 11.7490 127° Southeast 493 567 37,000  Level FlightAware
07:18AM 46.0550 11.8330 127° Southeast 494 568 37,000  Level FlightAware
07:19AM 46.0010 11.9360 127° Southeast 494 568 37,000  Level FlightAware
07:19AM 45.9530 12.0280 127° Southeast 494 568 37,000  Level FlightAware
07:20AM 45.9070 12.1130 128° Southeast 488 562 37,000  Level FlightAware
07:20AM 45.8590 12.2020 128° Southeast 489 563 37,000  Level FlightAware
07:21AM 45.8080 12.2980 127° Southeast 487 560 37,000 480 Level FlightAware
07:22AM 45.7480 12.4090 128° Southeast 484 557 37,700 780 Climbing FlightAware
07:22AM 45.6950 12.5080 127° Southeast 488 562 38,100 600 Climbing FlightAware
07:23AM 45.6430 12.6030 128° Southeast 497 572 38,500 540 Climbing FlightAware
07:24AM 45.5900 12.6990 128° Southeast 501 577 38,800 360 Climbing FlightAware
07:24AM 45.5370 12.7960 128° Southeast 503 579 39,000 120 Climbing FlightAware
07:25AM 45.4790 12.9040 127° Southeast 501 577 39,000  Level FlightAware
07:26AM 45.4230 13.0060 128° Southeast 498 573 39,000  Level FlightAware
07:26AM 45.3740 13.1050 125° Southeast 497 572 39,000  Level FlightAware
07:27AM 45.3390 13.1760 125° Southeast 496 571 39,000  Level FlightAware
07:27AM 45.2850 13.2860 125° Southeast 493 567 39,000  Level FlightAware
07:28AM 45.2440 13.3680 125° Southeast 491 565 39,000  Level FlightAware
07:28AM 45.1930 13.4680 126° Southeast 496 571 39,000  Level FlightAware
07:29AM 45.1510 13.5520 125° Southeast 496 571 39,000  Level FlightAware
07:30AM 45.0980 13.6570 126° Southeast 498 573 39,000  Level FlightAware
07:30AM 45.0500 13.7490 126° Southeast 499 574 39,000  Level FlightAware
07:31AM 45.0110 13.8250 126° Southeast 499 574 39,000  Level FlightAware
07:32AM 44.9480 13.9470 126° Southeast 499 574 39,000  Level FlightAware
07:32AM 44.9030 14.0340 126° Southeast 499 574 39,000  Level FlightAware
07:33AM 44.8530 14.1310 126° Southeast 497 572 39,000  Level FlightAware
07:33AM 44.8010 14.2300 126° Southeast 498 573 39,000  Level FlightAware
07:34AM 44.7470 14.3320 127° Southeast 497 572 39,000  Level FlightAware
07:35AM 44.6890 14.4440 126° Southeast 494 568 39,000  Level FlightAware
07:35AM 44.6350 14.5490 126° Southeast 484 557 39,000  Level FlightAware
07:36AM 44.5890 14.6390 126° Southeast 480 552 39,000  Level FlightAware
07:36AM 44.5520 14.7100 126° Southeast 477 549 39,000  Level FlightAware
07:37AM 44.4930 14.8210 127° Southeast 473 544 39,000  Level FlightAware
07:38AM 44.4580 14.8880 126° Southeast 473 544 39,000  Level FlightAware
07:38AM 44.4170 14.9710 125° Southeast 473 544 39,000  Level FlightAware
07:39AM 44.3620 15.0710 128° Southeast 471 542 39,000  Level FlightAware
07:39AM 44.3180 15.1520 127° Southeast 473 544 39,000  Level FlightAware
07:40AM 44.2740 15.2360 126° Southeast 474 545 39,000  Level FlightAware
07:41AM 44.2100 15.3550 127° Southeast 481 554 39,000  Level FlightAware
07:41AM 44.1640 15.4410 127° Southeast 483 556 39,000  Level FlightAware
07:42AM 44.1170 15.5280 127° Southeast 483 556 39,000  Level FlightAware
07:42AM 44.0700 15.6150 127° Southeast 483 556 39,000  Level FlightAware
07:43AM 44.0260 15.6970 127° Southeast 483 556 39,000  Level FlightAware
07:44AM 43.9830 15.7750 127° Southeast 484 557 39,000  Level FlightAware
07:44AM 43.9300 15.8740 127° Southeast 483 556 39,000  Level FlightAware
07:45AM 43.8830 15.9600 127° Southeast 484 557 39,000  Level FlightAware
07:45AM 43.8360 16.0470 127° Southeast 484 557 39,000  Level FlightAware
07:46AM 43.7860 16.1360 128° Southeast 484 557 39,000  Level FlightAware
07:47AM 43.7390 16.2220 127° Southeast 480 552 39,000  Level FlightAware
07:47AM 43.6930 16.3040 128° Southeast 480 552 39,000  Level FlightAware
07:48AM 43.6420 16.3940 128° Southeast 480 552 39,000  Level FlightAware
07:48AM 43.5960 16.4770 127° Southeast 480 552 39,000  Level FlightAware
07:49AM 43.5480 16.5630 128° Southeast 481 554 39,000  Level FlightAware
07:49AM 43.5000 16.6480 128° Southeast 482 555 39,000  Level FlightAware
07:50AM 43.4500 16.7380 127° Southeast 482 555 39,000  Level FlightAware
07:51AM 43.4030 16.8210 128° Southeast 484 557 39,000  Level FlightAware
07:51AM 43.3540 16.9090 127° Southeast 484 557 39,000  Level FlightAware
07:52AM 43.3050 16.9950 128° Southeast 485 558 39,000  Level FlightAware
07:52AM 43.2570 17.0810 127° Southeast 487 560 39,000  Level FlightAware
07:53AM 43.2060 17.1700 128° Southeast 494 568 39,000  Level FlightAware
07:54AM 43.1600 17.2520 128° Southeast 495 570 39,000  Level FlightAware
07:54AM 43.1090 17.3410 128° Southeast 496 571 39,000  Level FlightAware
07:55AM 43.0620 17.4230 128° Southeast 497 572 39,000  Level FlightAware
07:55AM 43.0120 17.5100 128° Southeast 499 574 39,000  Level FlightAware
07:56AM 42.9600 17.6000 128° Southeast 498 573 39,000  Level FlightAware
07:57AM 42.9080 17.6930 127° Southeast 498 573 39,000  Level FlightAware
07:57AM 42.8480 17.7960 128° Southeast 497 572 39,000  Level FlightAware
07:58AM 42.8090 17.8640 128° Southeast 497 572 39,000  Level FlightAware
07:58AM 42.7590 17.9500 128° Southeast 497 572 39,000  Level FlightAware
07:59AM 42.7000 18.0510 128° Southeast 495 570 39,000  Level FlightAware
08:00AM 42.6530 18.1330 128° Southeast 496 571 39,000  Level FlightAware
08:00AM 42.6090 18.2070 129° Southeast 496 571 39,000  Level FlightAware
08:01AM 42.5500 18.3010 130° Southeast 491 565 39,000  Level FlightAware
08:01AM 42.4860 18.3860 136° Southeast 488 562 39,000  Level FlightAware
08:02AM 42.4340 18.4550 136° Southeast 489 563 39,000  Level FlightAware
08:02AM 42.3760 18.5340 135° Southeast 489 563 39,000  Level FlightAware
08:03AM 42.3200 18.6100 135° Southeast 490 564 39,000  Level FlightAware
08:04AM 42.2610 18.6900 135° Southeast 490 564 39,000  Level FlightAware
08:04AM 42.2080 18.7610 135° Southeast 490 564 39,000  Level FlightAware
08:05AM 42.1500 18.8400 135° Southeast 490 564 39,000  Level FlightAware
08:05AM 42.0970 18.9110 135° Southeast 490 564 39,000  Level FlightAware
08:06AM 42.0410 18.9870 135° Southeast 491 565 39,000  Level FlightAware
08:06AM 41.9820 19.0650 135° Southeast 492 566 39,000  Level FlightAware
08:07AM 41.9280 19.1380 135° Southeast 492 566 39,000  Level FlightAware
08:08AM 41.8710 19.2130 136° Southeast 491 565 39,000  Level FlightAware
08:08AM 41.8140 19.2890 135° Southeast 490 564 39,000  Level FlightAware
08:09AM 41.7530 19.3630 138° Southeast 487 560 39,000  Level FlightAware
08:09AM 41.6960 19.4290 139° Southeast 485 558 39,000  Level FlightAware
08:10AM 41.6430 19.4970 136° Southeast 490 564 39,000  Level FlightAware
08:11AM 41.5830 19.5780 135° Southeast 490 564 39,000  Level FlightAware
08:11AM 41.5460 19.6270 135° Southeast 490 564 39,000  Level FlightAware
08:12AM 41.4680 19.7310 135° Southeast 490 564 39,000  Level FlightAware
08:12AM 41.4110 19.8040 136° Southeast 490 564 39,000  Level FlightAware
08:13AM 41.3620 19.8670 136° Southeast 491 565 39,000  Level FlightAware
08:13AM 41.3000 19.9470 136° Southeast 493 567 39,000  Level FlightAware
08:14AM 41.2470 20.0140 136° Southeast 495 570 39,000  Level FlightAware
08:15AM 41.1840 20.0960 136° Southeast 496 571 39,000  Level FlightAware
08:15AM 41.1240 20.1730 136° Southeast 497 572 39,000  Level FlightAware
08:16AM 41.0730 20.2390 136° Southeast 497 572 39,000  Level FlightAware
08:16AM 41.0110 20.3180 136° Southeast 498 573 39,000  Level FlightAware
08:17AM 40.9580 20.3860 136° Southeast 498 573 39,000  Level FlightAware
08:18AM 40.8950 20.4670 136° Southeast 500 575 39,000  Level FlightAware
08:18AM 40.8400 20.5360 136° Southeast 501 577 39,000  Level FlightAware
08:19AM 40.7790 20.6140 136° Southeast 501 577 39,000  Level FlightAware
08:19AM 40.7180 20.6900 137° Southeast 503 579 39,000  Level FlightAware
08:20AM 40.6610 20.7620 136° Southeast 504 580 39,000  Level FlightAware
08:20AM 40.6040 20.8340 136° Southeast 505 581 39,000  Level FlightAware
08:21AM 40.5460 20.9050 137° Southeast 504 580 39,000  Level FlightAware
08:22AM 40.4790 20.9900 136° Southeast 504 580 39,000  Level FlightAware
08:22AM 40.4230 21.0540 139° Southeast 503 579 39,000  Level FlightAware
08:23AM 40.3590 21.1270 139° Southeast 503 579 39,000  Level FlightAware
08:23AM 40.2960 21.1990 139° Southeast 503 579 39,000  Level FlightAware
08:24AM 40.2400 21.2640 138° Southeast 502 578 39,000  Level FlightAware
08:25AM 40.1730 21.3400 139° Southeast 503 579 39,000  Level FlightAware
08:25AM 40.1110 21.4120 138° Southeast 503 579 39,000  Level FlightAware
08:26AM 40.0550 21.4760 139° Southeast 503 579 39,000  Level FlightAware
08:26AM 39.9880 21.5520 139° Southeast 503 579 39,000  Level FlightAware
08:27AM 39.9310 21.6160 139° Southeast 503 579 39,000  Level FlightAware
08:27AM 39.8680 21.6880 139° Southeast 504 580 39,000  Level FlightAware
08:28AM 39.8080 21.7550 139° Southeast 505 581 39,000  Level FlightAware
08:29AM 39.7430 21.8290 139° Southeast 505 581 39,000  Level FlightAware
08:29AM 39.6810 21.8990 139° Southeast 506 582 39,000  Level FlightAware
08:30AM 39.6190 21.9680 139° Southeast 506 582 39,000  Level FlightAware
08:30AM 39.5550 22.0400 139° Southeast 506 582 39,000  Level FlightAware
08:31AM 39.4990 22.1020 139° Southeast 506 582 39,000  Level FlightAware
08:32AM 39.4350 22.1740 139° Southeast 509 586 39,000  Level FlightAware
08:32AM 39.3820 22.2460 134° Southeast 512 589 39,000  Level FlightAware
08:33AM 39.3190 22.3380 131° Southeast 514 592 39,000  Level FlightAware
08:33AM 39.2700 22.4120 131° Southeast 514 592 39,000  Level FlightAware
08:34AM 39.2110 22.5010 131° Southeast 513 590 39,000  Level FlightAware
08:34AM 39.1620 22.5760 130° Southeast 513 590 39,000  Level FlightAware
08:35AM 39.1060 22.6600 131° Southeast 513 590 39,000  Level FlightAware
08:36AM 39.0550 22.7380 130° Southeast 512 589 39,000  Level FlightAware
08:36AM 39.0040 22.8140 131° Southeast 512 589 39,000  Level FlightAware
08:37AM 38.9340 22.9180 131° Southeast 512 589 39,000  Level FlightAware
08:38AM 38.8700 23.0140 131° Southeast 513 590 39,000  Level FlightAware
08:38AM 38.8160 23.0940 131° Southeast 513 590 39,000  Level FlightAware
08:39AM 38.7560 23.1820 131° Southeast 514 592 39,000  Level FlightAware
08:39AM 38.7070 23.2550 131° Southeast 513 590 39,000  Level FlightAware
08:40AM 38.6520 23.3360 131° Southeast 513 590 39,000  Level FlightAware
08:41AM 38.5960 23.4170 131° Southeast 513 590 39,000  Level FlightAware
08:41AM 38.5440 23.4930 131° Southeast 513 590 39,000  Level FlightAware
08:42AM 38.4920 23.5690 131° Southeast 514 592 39,000  Level FlightAware
08:42AM 38.4360 23.6510 131° Southeast 512 589 39,000  Level FlightAware
08:43AM 38.3850 23.7260 131° Southeast 511 588 39,000  Level FlightAware
08:43AM 38.3310 23.8040 131° Southeast 510 587 39,000  Level FlightAware
08:44AM 38.2720 23.8900 131° Southeast 510 587 39,000  Level FlightAware
08:45AM 38.2220 23.9620 131° Southeast 509 586 39,000  Level FlightAware
08:45AM 38.1560 24.0580 131° Southeast 508 585 39,000  Level FlightAware
08:46AM 38.0940 24.1470 131° Southeast 508 585 39,000  Level FlightAware
08:47AM 38.0240 24.2480 131° Southeast 508 585 39,000  Level FlightAware
08:47AM 37.9650 24.3320 132° Southeast 509 586 39,000  Level FlightAware
08:48AM 37.9170 24.4010 131° Southeast 509 586 39,000  Level FlightAware
08:48AM 37.8540 24.4900 132° Southeast 510 587 39,000  Level FlightAware
08:49AM 37.8020 24.5750 128° Southeast 512 589 39,000  Level FlightAware
08:50AM 37.7520 24.6640 125° Southeast 514 592 39,000  Level FlightAware
08:50AM 37.7090 24.7410 125° Southeast 520 598 39,000  Level FlightAware
08:51AM 37.6590 24.8330 124° Southeast 523 602 39,000  Level FlightAware
08:51AM 37.6070 24.9280 125° Southeast 525 604 39,000  Level FlightAware
08:52AM 37.5640 25.0050 125° Southeast 527 606 39,000  Level FlightAware
08:53AM 37.5150 25.0930 125° Southeast 527 606 39,000  Level FlightAware
08:53AM 37.4650 25.1840 125° Southeast 527 606 39,000  Level FlightAware
08:54AM 37.4140 25.2750 125° Southeast 526 605 39,000  Level FlightAware
08:54AM 37.3700 25.3530 125° Southeast 527 606 39,000  Level FlightAware
08:55AM 37.3180 25.4450 125° Southeast 527 606 39,000  Level FlightAware
08:55AM 37.2680 25.5340 125° Southeast 529 609 39,000  Level FlightAware
08:56AM 37.2170 25.6260 125° Southeast 528 608 39,000  Level FlightAware
08:57AM 37.1780 25.6950 125° Southeast 528 608 39,000  Level FlightAware
08:57AM 37.1300 25.7810 125° Southeast 528 608 39,000  Level FlightAware
08:58AM 37.0790 25.8710 125° Southeast 527 606 39,000  Level FlightAware
08:58AM 37.0330 25.9510 126° Southeast 527 606 39,000  Level FlightAware
08:59AM 36.9830 26.0390 125° Southeast 527 606 39,000  Level FlightAware
08:59AM 36.9320 26.1280 126° Southeast 527 606 39,000  Level FlightAware
09:00AM 36.8800 26.2170 126° Southeast 526 605 39,000  Level FlightAware
09:01AM 36.8300 26.3050 125° Southeast 528 608 39,000  Level FlightAware
09:01AM 36.7770 26.3960 126° Southeast 527 606 39,000  Level FlightAware
09:02AM 36.7320 26.4740 126° Southeast 528 608 39,000  Level FlightAware
09:02AM 36.6810 26.5630 126° Southeast 529 609 39,000  Level FlightAware
09:03AM 36.6290 26.6520 126° Southeast 529 609 39,000  Level FlightAware
09:03AM 36.5890 26.7200 126° Southeast 528 608 39,000  Level FlightAware
09:04AM 36.5430 26.8000 126° Southeast 528 608 39,000  Level FlightAware
09:05AM 36.4890 26.8930 126° Southeast 528 608 39,000  Level FlightAware
09:05AM 36.4420 26.9730 126° Southeast 528 608 39,000  Level FlightAware
09:06AM 36.3920 27.0590 126° Southeast 528 608 39,000  Level FlightAware
09:06AM 36.3420 27.1480 125° Southeast 528 608 39,000  Level FlightAware
09:07AM 36.2990 27.2240 125° Southeast 528 608 39,000  Level FlightAware
09:08AM 36.2360 27.3250 128° Southeast 527 606 39,000  Level FlightAware
09:08AM 36.1930 27.4010 125° Southeast 527 606 39,000  Level FlightAware
09:09AM 36.1490 27.4790 125° Southeast 527 606 39,000  Level FlightAware
09:09AM 36.1060 27.5540 125° Southeast 527 606 39,000  Level FlightAware
09:10AM 36.0620 27.6320 125° Southeast 527 606 39,000  Level FlightAware
09:11AM 36.0190 27.7070 125° Southeast 527 606 39,000  Level FlightAware
09:11AM 35.9180 27.8590 129° Southeast 39,000  Level FlightAware
09:13AM 35.7640 28.1160 126° Southeast 528 608 39,000  Level FlightAware
09:14AM 35.7090 28.2060 127° Southeast 528 608 39,000  Level FlightAware
09:14AM 35.6600 28.2880 126° Southeast 528 608 39,000  Level FlightAware
09:15AM 35.6070 28.3760 127° Southeast 528 608 39,000  Level FlightAware
09:15AM 35.5550 28.4600 127° Southeast 527 606 39,000  Level FlightAware
09:16AM 35.5050 28.5420 127° Southeast 526 605 39,000  Level FlightAware
09:16AM 35.4580 28.6190 127° Southeast 527 606 39,000  Level FlightAware
09:17AM 35.4030 28.7100 127° Southeast 526 605 39,000  Level FlightAware
09:18AM 35.3530 28.7910 127° Southeast 526 605 39,000  Level FlightAware
09:18AM 35.3030 28.8730 127° Southeast 526 605 39,000  Level FlightAware
09:19AM 35.2530 28.9540 127° Southeast 520 598 39,000  Level FlightAware
09:20AM 35.1810 29.0700 127° Southeast 525 604 39,000  Level FlightAware
09:20AM 35.1290 29.1530 127° Southeast 525 604 39,000  Level FlightAware
09:21AM 35.0730 29.2430 127° Southeast 728 838 39,000  Level FlightAware
09:22AM 34.9900 29.3750 127° Southeast 521 600 39,000  Level FlightAware
09:22AM 34.9450 29.4500 126° Southeast 521 600 39,000  Level FlightAware
09:23AM 34.8790 29.5530 128° Southeast 525 604 39,000  Level FlightAware
09:24AM 34.8380 29.6180 128° Southeast 520 598 39,000  Level FlightAware
09:24AM 34.7820 29.7070 127° Southeast 519 597 39,000  Level FlightAware
09:25AM 34.7330 29.7930 125° Southeast 522 601 39,000  Level FlightAware
09:25AM 34.6890 29.8770 122° Southeast 523 602 39,000  Level FlightAware
09:26AM 34.6160 30.0270 121° Southeast 511 588 39,000  Level FlightAware
09:27AM 34.5670 30.1280 120° Southeast 510 587 39,000  Level FlightAware
09:27AM 34.5350 30.1940 120° Southeast 510 587 39,000  Level FlightAware
09:28AM 34.4850 30.2970 120° Southeast 509 586 39,000  Level FlightAware
09:29AM 34.4410 30.3870 121° Southeast 509 586 39,000  Level FlightAware
09:29AM 34.3970 30.4750 121° Southeast 508 585 39,000  Level FlightAware
09:30AM 34.3560 30.5600 120° Southeast 509 586 39,000  Level FlightAware
09:31AM 34.3060 30.6600 121° Southeast 508 585 39,000  Level FlightAware
09:31AM 34.2630 30.7470 121° Southeast 508 585 39,000  Level FlightAware
09:32AM 34.2130 30.8480 121° Southeast 508 585 39,000  Level FlightAware
09:32AM 34.1710 30.9320 121° Southeast 509 586 39,000  Level FlightAware
09:33AM 34.1290 31.0190 120° Southeast 509 586 39,000  Level FlightAware
09:34AM 34.0870 31.1020 121° Southeast 509 586 39,000  Level FlightAware
09:34AM 34.0480 31.1810 121° Southeast 510 587 39,000  Level FlightAware
09:35AM 34.0000 31.2780 121° Southeast 510 587 39,000  Level FlightAware
09:35AM 33.9620 31.3530 121° Southeast 506 582 39,000  Level FlightAware
09:36AM 33.9190 31.4400 121° Southeast 506 582 39,000  Level FlightAware
09:37AM 33.8710 31.5360 121° Southeast 506 582 39,000  Level FlightAware
09:37AM 33.8340 31.6100 121° Southeast 506 582 39,000  Level FlightAware
09:38AM 33.7970 31.6830 121° Southeast 506 582 39,000  Level FlightAware
09:38AM 33.7530 31.7700 121° Southeast 505 581 39,000  Level FlightAware
09:39AM 33.7090 31.8570 121° Southeast 505 581 39,000  Level FlightAware
09:39AM 33.6660 31.9420 121° Southeast 505 581 39,000  Level FlightAware
09:40AM 33.6230 32.0280 121° Southeast 505 581 39,000  Level FlightAware
09:41AM 33.5810 32.1100 122° Southeast 505 581 39,000  Level FlightAware
09:41AM 33.5330 32.2030 122° Southeast 504 580 39,000  Level FlightAware
09:42AM 33.4980 32.2700 122° Southeast 505 581 39,000  Level FlightAware
09:42AM 33.4520 32.3600 121° Southeast 497 572 39,000  Level FlightAware
09:43AM 33.4090 32.4430 122° Southeast 491 565 39,000  Level FlightAware
09:43AM 33.3670 32.5240 122° Southeast 489 563 39,000  Level FlightAware
09:44AM 33.3240 32.6080 121° Southeast 489 563 39,000 -720 Level FlightAware
09:45AM 33.2880 32.6780 122° Southeast 493 567 38,200 -2,760 Descending FlightAware
09:45AM 33.2410 32.7680 122° Southeast 510 587 35,800 -3,900 Descending FlightAware
09:46AM 33.1890 32.8680 122° Southeast 527 606 32,900 -3,300 Descending FlightAware
09:47AM 33.1360 32.9690 122° Southeast 521 600 31,200 -2,220 Descending FlightAware
09:47AM 33.0780 33.0790 122° Southeast 510 587 29,900 -1,800 Descending FlightAware
09:48AM 33.0530 33.1290 121° Southeast 505 581 29,100 -2,400 Descending FlightAware
09:48AM 32.9980 33.2330 122° Southeast 490 564 27,300 -2,640 Descending FlightAware
09:49AM 32.9520 33.3200 122° Southeast 476 548 25,800 -2,460 Descending FlightAware
09:50AM 32.9100 33.3990 122° Southeast 464 534 24,300 -2,280 Descending FlightAware
09:50AM 32.8720 33.4700 122° Southeast 459 528 23,200 -1,140 Descending FlightAware
09:51AM 32.8300 33.5500 122° Southeast 448 516 23,000 -1,140 Descending FlightAware
09:51AM 32.7930 33.6190 123° Southeast 444 511 21,900 -2,280 Descending FlightAware
09:52AM 32.7540 33.6930 122° Southeast 438 504 20,400 -2,460 Descending FlightAware
09:53AM 32.7180 33.7620 122° Southeast 430 495 19,100 -2,400 Descending FlightAware
09:53AM 32.6830 33.8260 123° Southeast 425 489 17,800 -2,220 Descending FlightAware
09:54AM 32.6440 33.9000 122° Southeast 415 478 16,500 -2,160 Descending FlightAware
09:54AM 32.6200 33.9750 111° Southeast 410 472 15,200 -2,400 Descending FlightAware
09:55AM 32.6160 34.0480 94° East 406 467 13,800 -2,280 Descending FlightAware
09:55AM 32.6120 34.1270 93° East 393 452 12,600 -1,740 Descending FlightAware
09:56AM 32.6090 34.2050 93° East 374 430 11,700 -1,260 Descending FlightAware
09:57AM 32.6040 34.2670 95° East 352 405 11,200 -900 Descending FlightAware
09:57AM 32.5950 34.2950 111° Southeast 338 389 11,000 -540 Descending FlightAware
09:57AM 32.5780 34.3180 131° Southeast 324 373 10,900 -540 Descending FlightAware
09:57AM 32.5520 34.3360 150° Southeast 308 354 10,700 -1,020 Descending FlightAware
09:58AM 32.5100 34.3550 159° South 300 345 10,000 -1,140 Descending FlightAware
09:58AM 32.4860 34.3640 162° South 297 342 9,700 -1,200 Descending FlightAware
09:59AM 32.4520 34.3780 161° South 291 335 9,100 -1,320 Descending FlightAware
09:59AM 32.4170 34.3920 161° South 289 333 8,500 -1,320 Descending FlightAware
10:00AM 32.3770 34.4080 161° South 284 327 7,800 -1,320 Descending FlightAware
10:00AM 32.3530 34.4180 161° South 284 327 7,400 -1,200 Descending FlightAware
10:01AM 32.3200 34.4330 159° South 284 327 6,800 -1,320 Descending FlightAware
10:01AM 32.2920 34.4450 160° South 278 320 6,300 -780 Descending FlightAware
10:02AM 32.2510 34.4640 159° South 278 320 6,100 -1,500 Descending FlightAware
10:02AM 32.2430 34.4750 131° Southeast 279 321 5,300 -3,000 Descending FlightAware
10:02AM 32.2340 34.4900 125° Southeast 280 322 5,200 -300 Descending FlightAware
10:02AM 32.2280 34.5000 125° Southeast 283 326 5,200  Level FlightAware
10:02AM 32.2150 34.5260 121° Southeast 283 326 5,200  Level FlightAware
10:03AM 32.2020 34.5520 121° Southeast 283 326 5,200  Level FlightAware
10:03AM 32.1890 34.5780 121° Southeast 283 326 5,200  Level FlightAware
10:03AM 32.1810 34.5930 122° Southeast 272 313 5,200  Level FlightAware
10:04AM 32.1660 34.6210 122° Southeast 246 283 5,200  Level FlightAware
10:04AM 32.1510 34.6470 124° Southeast 239 275 5,200  Level FlightAware
10:04AM 32.1350 34.6760 123° Southeast 239 275 5,200  Level FlightAware
10:05AM 32.1270 34.6900 124° Southeast 239 275 5,200  Level FlightAware
10:05AM 32.1150 34.7130 122° Southeast 240 276 5,200  Level FlightAware
10:05AM 32.1000 34.7390 124° Southeast 240 276 5,200 60 Level FlightAware
10:06AM 32.0830 34.7710 122° Southeast 219 252 5,300  Climbing FlightAware
10:06AM 32.0700 34.7890 130° Southeast 206 237 5,200 -780 Descending FlightAware
10:07AM 32.0550 34.8050 138° Southeast 201 231 4,800 -540 Descending FlightAware
10:07AM 32.0320 34.8300 137° Southeast 202 232 4,700  Descending FlightAware
10:07AM 32.0170 34.8470 136° Southeast 194 223 4,800  Climbing FlightAware
10:08AM 32.0080 34.8570 137° Southeast 189 217 4,700 -360 Descending FlightAware
10:08AM 31.9900 34.8790 134° Southeast 186 214 4,500 -1,380 Descending FlightAware
10:09AM 32.0180 34.8460 315° West 181 208 3,400 -2,400 Descending FlightAware
10:09AM 31.9880 34.9130 118° Southeast 172 198 3,200 -1,320 Descending FlightAware
10:09AM 31.9940 34.9360 73° East 164 189 2,600 -1,320 Descending FlightAware
10:10AM 32.0010 34.9630 73° East 165 190 2,000 -1,380 Descending FlightAware
10:10AM 32.0060 34.9700 50° Northeast 160 184 1,600 -1,440 Descending FlightAware
10:10AM 32.0170 34.9730 13° North 156 180 1,400 -600 Descending FlightAware
10:10AM 32.0220 34.9720 350° North 152 175 1,400 -420 Level FlightAware
10:11AM 32.0280 34.9690 337° Northwest 151 174 1,300 -420 Descending FlightAware
10:11AM 32.0330 34.9650 326° Northwest 152 175 1,300 -300 Level FlightAware
10:11AM 32.0380 34.9540 298° West 151 174 1,200 -180 Descending FlightAware
10:11AM 32.0410 34.9370 282° West 151 174 1,200  Level FlightAware
10:14AM 32.0095 34.8769 238° Southwest  Level Estimated
10:15AM 32.0095 34.8769 270° West  Level Estimated